createdAt,value
2022-08-07T00:00:27.476Z,17.7
2022-08-07T00:02:39.816Z,14.9
2022-08-07T00:04:28.523Z,12.9
2022-08-07T00:06:33.057Z,13.7
2022-08-07T00:08:29.100Z,13.9
2022-08-07T00:10:30.941Z,15.4
2022-08-07T00:12:30.136Z,15.9
2022-08-07T00:14:31.024Z,15.9
2022-08-07T00:16:30.721Z,17.3
2022-08-07T00:18:31.769Z,20.4
2022-08-07T00:20:34.247Z,15.7
2022-08-07T00:22:35.147Z,15.5
2022-08-07T00:24:32.236Z,14.4
2022-08-07T00:26:59.014Z,14.5
2022-08-07T00:28:34.459Z,17.4
2022-08-07T00:30:33.241Z,15.1
2022-08-07T00:32:34.879Z,13
2022-08-07T00:34:35.419Z,15.9
2022-08-07T00:36:34.392Z,15.2
2022-08-07T00:38:35.651Z,17.9
2022-08-07T00:40:40.491Z,13.7
2022-08-07T00:42:36.565Z,14.9
2022-08-07T00:44:41.269Z,16.2
2022-08-07T00:46:36.276Z,15.7
2022-08-07T00:48:36.710Z,13.7
2022-08-07T00:50:43.549Z,16.8
2022-08-07T00:52:37.701Z,18
2022-08-07T00:54:40.644Z,16.4
2022-08-07T00:56:38.339Z,17.6
2022-08-07T00:58:41.871Z,20.8
2022-08-07T01:00:39.152Z,15.7
2022-08-07T01:02:39.652Z,14.5
2022-08-07T01:04:40.458Z,15.4
2022-08-07T01:06:40.139Z,18
2022-08-07T01:08:43.111Z,16.5
2022-08-07T01:10:47.621Z,16.3
2022-08-07T01:12:53.447Z,18.8
2022-08-07T01:14:41.838Z,15.8
2022-08-07T01:16:43.122Z,17.5
2022-08-07T01:18:42.781Z,16.2
2022-08-07T01:20:57.293Z,19.8
2022-08-07T01:22:46.716Z,16.3
2022-08-07T01:24:44.537Z,16
2022-08-07T01:26:44.061Z,17.8
2022-08-07T01:28:48.328Z,13.3
2022-08-07T01:30:46.796Z,17.8
2022-08-07T01:32:45.197Z,17.4
2022-08-07T01:34:47.300Z,18.1
2022-08-07T01:36:52.938Z,15.5
2022-08-07T01:38:52.775Z,18.3
2022-08-07T01:40:49.740Z,20.7
2022-08-07T01:42:57.422Z,15.6
2022-08-07T01:44:47.970Z,16.4
2022-08-07T01:46:47.886Z,17.5
2022-08-07T01:48:53.026Z,18.4
2022-08-07T01:50:52.959Z,16.7
2022-08-07T01:52:54.408Z,16
2022-08-07T01:54:52.135Z,13.9
2022-08-07T01:56:53.940Z,15.8
2022-08-07T01:58:53.994Z,15.1
2022-08-07T02:01:09.476Z,15.9
2022-08-07T02:03:18.354Z,16.9
2022-08-07T02:04:57.418Z,22.6
2022-08-07T02:06:54.387Z,16.8
2022-08-07T02:08:54.426Z,16.6
2022-08-07T02:10:55.063Z,16.3
2022-08-07T02:12:59.759Z,16.4
2022-08-07T02:15:06.711Z,15.4
2022-08-07T02:16:55.652Z,20.2
2022-08-07T02:18:58.018Z,18.9
2022-08-07T02:20:57.508Z,21.5
2022-08-07T02:23:01.617Z,17.7
2022-08-07T02:24:56.499Z,18.6
2022-08-07T02:26:55.647Z,17.9
2022-08-07T02:28:56.433Z,18.3
2022-08-07T02:30:57.004Z,22.6
2022-08-07T02:33:03.699Z,16.9
2022-08-07T02:34:58.719Z,21.6
2022-08-07T02:36:57.775Z,18.3
2022-08-07T02:38:59.722Z,20.2
2022-08-07T02:40:58.708Z,20.9
2022-08-07T02:43:00.218Z,18.4
2022-08-07T02:45:19.897Z,16.7
2022-08-07T02:47:02.058Z,18.4
2022-08-07T02:48:59.079Z,16.3
2022-08-07T02:51:04.394Z,20.4
2022-08-07T02:53:06.147Z,18.5
2022-08-07T02:55:27.396Z,18.7
2022-08-07T02:57:02.482Z,19.3
2022-08-07T02:59:05.766Z,19.8
2022-08-07T03:01:03.355Z,16.5
2022-08-07T03:03:06.036Z,23.4
2022-08-07T03:05:04.828Z,21.9
2022-08-07T03:07:07.378Z,19.6
2022-08-07T03:09:05.689Z,18.5
2022-08-07T03:11:07.992Z,17.1
2022-08-07T03:13:05.485Z,21.4
2022-08-07T03:15:07.715Z,16.3
2022-08-07T03:17:05.887Z,21.7
2022-08-07T03:19:05.325Z,17.1
2022-08-07T03:21:08.572Z,18.9
2022-08-07T03:23:19.036Z,18.2
2022-08-07T03:25:12.320Z,20.1
2022-08-07T03:27:13.952Z,19.7
2022-08-07T03:29:11.016Z,18.8
2022-08-07T03:31:08.580Z,22.6
2022-08-07T03:33:10.060Z,18.8
2022-08-07T03:35:17.501Z,18.3
2022-08-07T03:37:12.456Z,15.1
2022-08-07T03:39:12.648Z,26.3
2022-08-07T03:41:10.516Z,19.8
2022-08-07T03:43:14.426Z,17.8
2022-08-07T03:45:11.849Z,18.5
2022-08-07T03:47:14.335Z,19.2
2022-08-07T03:49:14.315Z,19.2
2022-08-07T03:51:14.060Z,19.9
2022-08-07T03:53:13.081Z,22.3
2022-08-07T03:55:15.622Z,19.2
2022-08-07T03:58:08.777Z,22.5
2022-08-07T03:59:17.362Z,21.3
2022-08-07T04:01:16.848Z,22.6
2022-08-07T04:03:15.702Z,20.8
2022-08-07T04:05:18.413Z,17.7
2022-08-07T04:07:17.390Z,20.8
2022-08-07T04:09:19.323Z,18.9
2022-08-07T04:12:21.124Z,18.4
2022-08-07T04:13:19.342Z,18
2022-08-07T04:15:19.745Z,22.7
2022-08-07T04:17:21.826Z,19.3
2022-08-07T04:19:23.435Z,18.6
2022-08-07T04:21:20.670Z,24.5
2022-08-07T04:23:22.390Z,20.3
2022-08-07T04:25:23.655Z,15.9
2022-08-07T04:27:36.001Z,18.1
2022-08-07T04:29:22.762Z,19.6
2022-08-07T04:31:39.198Z,19.9
2022-08-07T04:33:25.638Z,20.6
2022-08-07T04:35:25.522Z,22
2022-08-07T04:37:26.111Z,20.5
2022-08-07T04:39:26.409Z,22
2022-08-07T04:41:26.526Z,21.6
2022-08-07T04:44:12.022Z,18.5
2022-08-07T04:45:58.138Z,26.8
2022-08-07T04:47:58.822Z,23.8
2022-08-07T04:49:39.523Z,17.2
2022-08-07T04:51:41.061Z,22.5
2022-08-07T04:54:01.568Z,20.3
2022-08-07T04:58:09.703Z,18.8
2022-08-07T04:58:11.763Z,21.2
2022-08-07T05:00:11.510Z,20
2022-08-07T05:01:43.903Z,19.5
2022-08-07T05:04:07.783Z,21.3
2022-08-07T05:05:52.147Z,21
2022-08-07T05:07:48.105Z,17.5
2022-08-07T05:09:45.307Z,17.3
2022-08-07T05:11:56.892Z,18.6
2022-08-07T05:14:54.219Z,14.7
2022-08-07T05:15:43.527Z,19.9
2022-08-07T05:17:52.455Z,20
2022-08-07T05:19:48.056Z,19.5
2022-08-07T05:21:59.864Z,18.2
2022-08-07T05:23:47.249Z,23.5
2022-08-07T05:26:10.567Z,19.9
2022-08-07T05:28:03.104Z,13.8
2022-08-07T05:29:50.938Z,15.8
2022-08-07T05:31:52.716Z,19.6
2022-08-07T05:33:51.320Z,14.5
2022-08-07T05:35:46.547Z,19.9
2022-08-07T05:37:46.978Z,13.9
2022-08-07T05:40:16.881Z,18.2
2022-08-07T05:42:01.113Z,22
2022-08-07T05:44:12.735Z,16.5
2022-08-07T05:45:51.959Z,15.1
2022-08-07T05:48:01.806Z,21.2
2022-08-07T05:49:52.280Z,16.5
2022-08-07T05:51:53.275Z,19.3
2022-08-07T05:54:09.488Z,18.8
2022-08-07T05:56:02.866Z,16.3
2022-08-07T05:57:54.890Z,17
2022-08-07T05:59:58.007Z,18.8
2022-08-07T06:01:57.728Z,24
2022-08-07T06:04:00.907Z,17.4
2022-08-07T06:05:58.726Z,17.1
2022-08-07T06:08:13.682Z,21.2
2022-08-07T06:10:05.209Z,34.8
2022-08-07T06:11:59.720Z,15.7
2022-08-07T06:14:12.719Z,18.7
2022-08-07T06:16:02.865Z,17
2022-08-07T06:18:02.052Z,21.3
2022-08-07T06:20:03.938Z,21.1
2022-08-07T06:22:15.896Z,20.2
2022-08-07T06:24:46.106Z,20.8
2022-08-07T06:26:05.749Z,15.8
2022-08-07T06:28:08.469Z,20.5
2022-08-07T06:30:07.623Z,17.4
2022-08-07T06:32:07.113Z,13.6
2022-08-07T06:34:07.933Z,13.1
2022-08-07T06:36:13.720Z,12.1
2022-08-07T06:38:10.057Z,14.2
2022-08-07T06:40:17.602Z,22.8
2022-08-07T06:42:33.197Z,56.8
2022-08-07T06:44:14.061Z,14.1
2022-08-07T06:46:15.617Z,11.6
2022-08-07T06:48:24.667Z,15.8
2022-08-07T06:50:15.451Z,19.9
2022-08-07T06:52:17.529Z,14.1
2022-08-07T06:55:34.341Z,12.6
2022-08-07T06:56:20.033Z,11.4
2022-08-07T06:58:28.754Z,17.8
2022-08-07T07:00:20.579Z,15.6
2022-08-07T07:02:27.101Z,16.1
2022-08-07T07:04:28.545Z,11.3
2022-08-07T07:06:26.333Z,12.5
2022-08-07T07:08:26.542Z,23.5
2022-08-07T07:10:27.749Z,14.4
2022-08-07T07:12:37.830Z,13.5
2022-08-07T07:14:27.248Z,16.5
2022-08-07T07:16:30.724Z,18.4
2022-08-07T07:18:47.762Z,13.4
2022-08-07T07:20:32.767Z,23.8
2022-08-07T07:22:37.000Z,29.8
2022-08-07T07:24:28.845Z,17.4
2022-08-07T07:26:36.877Z,13.1
2022-08-07T07:28:48.697Z,11.7
2022-08-07T07:30:39.710Z,15.6
2022-08-07T07:32:35.855Z,17.7
2022-08-07T07:34:34.041Z,21.8
2022-08-07T07:36:36.330Z,14.7
2022-08-07T07:38:34.981Z,17.4
2022-08-07T07:40:37.656Z,10.9
2022-08-07T07:42:36.940Z,15.4
2022-08-07T07:44:41.191Z,13.1
2022-08-07T07:46:56.031Z,13.9
2022-08-07T07:48:40.635Z,13.5
2022-08-07T07:50:40.155Z,12.3
2022-08-07T07:52:42.257Z,13.5
2022-08-07T07:54:50.761Z,16.3
2022-08-07T07:56:42.761Z,15.5
2022-08-07T07:58:43.609Z,21.2
2022-08-07T08:00:45.760Z,18
2022-08-07T08:03:04.701Z,13.4
2022-08-07T08:04:45.065Z,10.4
2022-08-07T08:06:52.072Z,25.8
2022-08-07T08:08:48.185Z,10.2
2022-08-07T08:10:47.840Z,18.2
2022-08-07T08:12:58.988Z,13.2
2022-08-07T08:14:47.822Z,15.2
2022-08-07T08:16:50.884Z,22
2022-08-07T08:18:53.999Z,16
2022-08-07T08:20:51.050Z,11.9
2022-08-07T08:22:55.813Z,15.4
2022-08-07T08:24:57.360Z,14.9
2022-08-07T08:26:54.383Z,13.4
2022-08-07T08:28:55.032Z,23.3
2022-08-07T08:30:56.853Z,20.3
2022-08-07T08:32:58.496Z,20.8
2022-08-07T08:34:57.858Z,15.7
2022-08-07T08:36:58.174Z,18.4
2022-08-07T08:38:59.082Z,41.3
2022-08-07T08:41:04.673Z,21.8
2022-08-07T08:43:08.080Z,13.5
2022-08-07T08:45:13.499Z,15.7
2022-08-07T08:47:09.844Z,18.1
2022-08-07T08:49:09.805Z,17.9
2022-08-07T08:51:14.694Z,16.2
2022-08-07T08:53:08.663Z,16.1
2022-08-07T08:55:09.735Z,19.8
2022-08-07T08:57:07.513Z,15.9
2022-08-07T08:59:16.413Z,21.7
2022-08-07T09:01:15.893Z,14.1
2022-08-07T09:03:18.202Z,15.4
2022-08-07T09:05:26.441Z,13.1
2022-08-07T09:07:23.153Z,14.8
2022-08-07T09:09:21.071Z,13.1
2022-08-07T09:11:24.684Z,16.1
2022-08-07T09:13:18.261Z,18.4
2022-08-07T09:16:20.036Z,18.1
2022-08-07T09:17:20.948Z,18
2022-08-07T09:19:52.962Z,18.5
2022-08-07T09:21:34.442Z,21.9
2022-08-07T09:24:33.579Z,18.5
2022-08-07T09:25:20.884Z,15.9
2022-08-07T09:27:28.943Z,22.3
2022-08-07T09:30:04.031Z,15.1
2022-08-07T09:31:22.841Z,13.9
2022-08-07T09:33:52.670Z,18.4
2022-08-07T09:36:04.741Z,16.5
2022-08-07T09:37:47.743Z,16.9
2022-08-07T09:39:53.769Z,17
2022-08-07T09:41:36.292Z,16.5
2022-08-07T09:44:03.545Z,14.5
2022-08-07T09:47:42.499Z,13.9
2022-08-07T09:47:55.924Z,14.9
2022-08-07T09:50:00.886Z,16.1
2022-08-07T09:52:16.701Z,16
2022-08-07T09:53:25.299Z,15.1
2022-08-07T09:56:04.486Z,13.2
2022-08-07T09:57:48.560Z,16.3
2022-08-07T09:59:46.302Z,20.2
2022-08-07T10:01:52.052Z,20
2022-08-07T10:04:06.407Z,21.5
2022-08-07T10:06:00.135Z,41.9
2022-08-07T10:07:53.461Z,78.7
2022-08-07T10:09:59.000Z,69.9
2022-08-07T10:12:03.396Z,29.8
2022-08-07T10:14:00.458Z,25.2
2022-08-07T10:15:53.928Z,31.8
2022-08-07T10:18:01.103Z,43.1
2022-08-07T10:19:45.403Z,24
2022-08-07T10:22:12.388Z,24.7
2022-08-07T10:24:05.192Z,24.2
2022-08-07T10:25:46.199Z,15.5
2022-08-07T10:27:51.465Z,15.2
2022-08-07T10:29:51.449Z,13
2022-08-07T10:31:52.594Z,19.4
2022-08-07T10:34:05.932Z,17.4
2022-08-07T10:35:56.281Z,13.5
2022-08-07T10:37:48.712Z,23.2
2022-08-07T10:40:03.462Z,19.1
2022-08-07T10:41:46.986Z,17.8
2022-08-07T10:44:02.282Z,18.9
2022-08-07T10:45:57.482Z,16.7
2022-08-07T10:47:52.516Z,18.5
2022-08-07T10:49:49.797Z,17.4
2022-08-07T10:52:01.497Z,21.3
2022-08-07T10:53:45.114Z,21.1
2022-08-07T10:55:46.633Z,16.1
2022-08-07T10:57:59.364Z,14.7
2022-08-07T11:00:01.642Z,14.1
2022-08-07T11:01:51.332Z,14.2
2022-08-07T11:03:55.136Z,12.8
2022-08-07T11:05:48.831Z,14.8
2022-08-07T11:07:59.182Z,13.6
2022-08-07T11:10:08.855Z,14.2
2022-08-07T11:11:51.957Z,18.4
2022-08-07T11:14:45.853Z,13.3
2022-08-07T11:15:54.437Z,11.6
2022-08-07T11:17:50.089Z,14.9
2022-08-07T11:19:49.751Z,12.7
2022-08-07T11:21:53.604Z,15.7
2022-08-07T11:23:52.132Z,17.9
2022-08-07T11:25:52.110Z,16.7
2022-08-07T11:28:02.899Z,13.6
2022-08-07T11:30:10.086Z,14.8
2022-08-07T11:31:53.334Z,15.4
2022-08-07T11:34:00.239Z,13.1
2022-08-07T11:35:59.793Z,14.5
2022-08-07T11:38:12.458Z,17
2022-08-07T11:40:01.986Z,14.8
2022-08-07T11:42:02.421Z,11.7
2022-08-07T11:46:13.894Z,15.4
2022-08-07T11:48:18.162Z,13.8
2022-08-07T11:50:32.036Z,18.9
2022-08-07T11:52:02.916Z,11.9
2022-08-07T11:54:01.086Z,16
2022-08-07T11:56:09.719Z,13.5
2022-08-07T11:58:01.210Z,15
2022-08-07T12:00:18.402Z,13.1
2022-08-07T12:02:02.184Z,15.8
2022-08-07T12:04:10.426Z,18.6
2022-08-07T12:06:39.639Z,16.4
2022-08-07T12:08:03.804Z,14.2
2022-08-07T12:10:02.030Z,13.3
2022-08-07T12:12:10.173Z,41.2
2022-08-07T12:14:04.582Z,14.4
2022-08-07T12:16:06.127Z,15.7
2022-08-07T12:18:08.033Z,15.1
2022-08-07T12:20:04.701Z,13.2
2022-08-07T12:22:38.622Z,10
2022-08-07T12:24:12.407Z,14
2022-08-07T12:26:28.965Z,14.2
2022-08-07T12:28:09.116Z,11.3
2022-08-07T12:30:03.275Z,11.4
2022-08-07T12:32:12.616Z,13
2022-08-07T12:34:04.214Z,15.1
2022-08-07T12:36:03.144Z,9.3
2022-08-07T12:38:10.034Z,11.4
2022-08-07T12:40:04.244Z,13.9
2022-08-07T12:42:04.489Z,9.1
2022-08-07T12:44:10.381Z,9.3
2022-08-07T12:46:26.653Z,19.8
2022-08-07T12:48:13.154Z,12.8
2022-08-07T12:50:39.053Z,16.7
2022-08-07T12:52:14.643Z,11.7
2022-08-07T12:54:36.859Z,14.7
2022-08-07T12:56:11.640Z,13.8
2022-08-07T12:58:10.159Z,25
2022-08-07T13:00:16.450Z,18.6
2022-08-07T13:02:27.017Z,10.8
2022-08-07T13:04:32.563Z,9
2022-08-07T13:06:27.191Z,8.5
2022-08-07T13:08:25.827Z,8.1
2022-08-07T13:10:38.259Z,9.5
2022-08-07T13:12:18.515Z,14.1
2022-08-07T13:14:30.471Z,11.7
2022-08-07T13:16:16.381Z,40.7
2022-08-07T13:18:26.250Z,30.8
2022-08-07T13:20:19.712Z,58.6
2022-08-07T13:22:29.840Z,14.6
2022-08-07T13:24:25.804Z,18.8
2022-08-07T13:26:21.635Z,20.6
2022-08-07T13:28:24.338Z,28.1
2022-08-07T13:30:19.503Z,18.7
2022-08-07T13:32:31.578Z,10.5
2022-08-07T13:34:34.193Z,8.3
2022-08-07T13:36:22.375Z,6
2022-08-07T13:38:20.957Z,6.1
2022-08-07T13:40:35.413Z,13.3
2022-08-07T13:42:25.102Z,8.6
2022-08-07T13:44:26.011Z,7.8
2022-08-07T13:46:25.516Z,7
2022-08-07T13:48:33.887Z,5.7
2022-08-07T13:50:33.289Z,5
2022-08-07T13:52:26.523Z,7
2022-08-07T13:54:29.129Z,6.7
2022-08-07T13:56:36.404Z,5.7
2022-08-07T13:58:28.086Z,15.7
2022-08-07T14:00:34.358Z,5.1
2022-08-07T14:02:33.255Z,6.8
2022-08-07T14:04:35.466Z,7.7
2022-08-07T14:06:31.171Z,8.4
2022-08-07T14:08:26.473Z,7.5
2022-08-07T14:10:28.210Z,11.9
2022-08-07T14:12:31.954Z,8.4
2022-08-07T14:14:28.705Z,7.6
2022-08-07T14:16:32.615Z,4.9
2022-08-07T14:18:31.246Z,6.4
2022-08-07T14:20:43.389Z,10.6
2022-08-07T14:22:34.633Z,6.1
2022-08-07T14:24:33.635Z,6
2022-08-07T14:26:36.773Z,5.3
2022-08-07T14:28:33.231Z,7.1
2022-08-07T14:30:32.578Z,9.4
2022-08-07T14:32:35.904Z,9.2
2022-08-07T14:34:32.880Z,8.2
2022-08-07T14:36:33.025Z,14.8
2022-08-07T14:38:33.433Z,16
2022-08-07T14:40:35.374Z,8.9
2022-08-07T14:42:34.679Z,6.1
2022-08-07T14:44:33.998Z,6.3
2022-08-07T14:46:35.075Z,8.4
2022-08-07T14:48:37.028Z,6.1
2022-08-07T14:50:42.030Z,5.8
2022-08-07T14:52:36.962Z,7.2
2022-08-07T14:54:42.244Z,9
2022-08-07T14:56:41.569Z,7.5
2022-08-07T14:58:40.063Z,8.5
2022-08-07T15:00:38.744Z,7.2
2022-08-07T15:04:40.230Z,15.6
2022-08-07T15:06:47.825Z,10.8
2022-08-07T15:08:49.984Z,10.3
2022-08-07T15:10:58.951Z,8.5
2022-08-07T15:12:42.266Z,9.8
2022-08-07T15:14:57.569Z,11.6
2022-08-07T15:16:54.940Z,11
2022-08-07T15:18:45.589Z,8.6
2022-08-07T15:20:55.321Z,10.9
2022-08-07T15:22:51.573Z,8.2
2022-08-07T15:25:16.236Z,12.6
2022-08-07T15:26:47.061Z,12.4
2022-08-07T15:31:04.588Z,8.9
2022-08-07T15:34:50.259Z,6.6
2022-08-07T15:37:03.330Z,5.6
2022-08-07T15:38:59.249Z,6.8
2022-08-07T15:41:00.144Z,7.3
2022-08-07T15:42:52.605Z,8.4
2022-08-07T15:44:52.063Z,6.1
2022-08-07T15:46:56.785Z,4.2
2022-08-07T15:49:04.018Z,4.5
2022-08-07T15:51:07.818Z,4.1
2022-08-07T15:52:51.688Z,5.3
2022-08-07T15:54:51.262Z,6
2022-08-07T15:56:51.036Z,5.3
2022-08-07T15:58:53.798Z,7.1
2022-08-07T16:00:51.145Z,5.5
2022-08-07T16:02:54.973Z,5.1
2022-08-07T16:04:55.968Z,7.6
2022-08-07T16:06:54.464Z,4.9
2022-08-07T16:08:57.054Z,6.2
2022-08-07T16:10:59.067Z,6.3
2022-08-07T16:13:17.917Z,7.6
2022-08-07T16:15:04.122Z,8.3
2022-08-07T16:17:15.438Z,7.5
2022-08-07T16:19:09.657Z,6.6
2022-08-07T16:22:01.751Z,9.5
2022-08-07T16:23:12.033Z,7.6
2022-08-07T16:25:01.857Z,7.2
2022-08-07T16:27:18.340Z,6.5
2022-08-07T16:30:07.340Z,5
2022-08-07T16:31:12.210Z,4.9
2022-08-07T16:34:02.320Z,7
2022-08-07T16:35:51.953Z,6.9
2022-08-07T16:38:04.470Z,5.3
2022-08-07T16:39:17.728Z,5
2022-08-07T16:41:19.255Z,5.4
2022-08-07T16:43:12.496Z,6.1
2022-08-07T16:45:15.388Z,5.4
2022-08-07T16:47:49.626Z,6.4
2022-08-07T16:50:28.788Z,7.7
2022-08-07T16:51:53.990Z,6.4
2022-08-07T16:54:02.413Z,5.4
2022-08-07T16:55:13.185Z,3.9
2022-08-07T16:58:00.896Z,4.3
2022-08-07T16:59:11.234Z,5.6
2022-08-07T17:01:34.642Z,6.3
2022-08-07T17:03:17.395Z,10.5
2022-08-07T17:06:28.244Z,10.4
2022-08-07T17:07:16.145Z,10.2
2022-08-07T17:10:05.309Z,7.9
2022-08-07T17:11:14.398Z,10.8
2022-08-07T17:13:41.238Z,9.3
2022-08-07T17:15:17.901Z,8.8
2022-08-07T17:17:21.564Z,10.8
2022-08-07T17:19:17.336Z,12.9
2022-08-07T17:21:18.430Z,6.3
2022-08-07T17:23:32.417Z,6.8
2022-08-07T17:25:15.721Z,5.9
2022-08-07T17:27:29.696Z,9.6
2022-08-07T17:30:15.733Z,11.6
2022-08-07T17:31:15.941Z,6.8
2022-08-07T17:34:09.066Z,7.4
2022-08-07T17:35:50.459Z,8
2022-08-07T17:38:05.736Z,5.1
2022-08-07T17:39:19.430Z,4.9
2022-08-07T17:40:09.047Z,4.9
2022-08-07T17:40:43.349Z,4.9
2022-08-07T17:42:01.860Z,8.2
2022-08-07T17:42:03.051Z,4.9
2022-08-07T17:43:18.519Z,8.2
2022-08-07T17:44:01.853Z,8.4
2022-08-07T17:45:19.522Z,14
2022-08-07T17:47:37.682Z,12.6
2022-08-07T17:49:24.109Z,11.8
2022-08-07T17:51:21.602Z,8.5
2022-08-07T17:54:00.133Z,9.1
2022-08-07T17:56:00.723Z,17.9
2022-08-07T17:57:56.605Z,8.5
2022-08-07T17:59:24.919Z,11.5
2022-08-07T18:01:22.568Z,9.7
2022-08-07T18:03:25.604Z,11.7
2022-08-07T18:05:27.727Z,11.4
2022-08-07T18:07:36.872Z,11.5
2022-08-07T18:10:04.683Z,12.9
2022-08-07T18:12:16.404Z,9.7
2022-08-07T18:13:40.885Z,12.2
2022-08-07T18:15:32.562Z,9.1
2022-08-07T18:18:47.449Z,8.3
2022-08-07T18:21:07.527Z,11
2022-08-07T18:21:54.890Z,9.4
2022-08-07T18:23:43.461Z,12.3
2022-08-07T18:25:40.968Z,10
2022-08-07T18:27:38.384Z,12.6
2022-08-07T18:30:07.039Z,10
2022-08-07T18:31:41.428Z,8.1
2022-08-07T18:33:54.917Z,10.2
2022-08-07T18:35:50.270Z,11.1
2022-08-07T18:38:56.752Z,14.8
2022-08-07T18:40:07.038Z,13
2022-08-07T18:41:45.891Z,12.8
2022-08-07T18:43:49.039Z,12.3
2022-08-07T18:45:44.277Z,11.9
2022-08-07T18:47:44.866Z,11.1
2022-08-07T18:50:29.844Z,13.1
2022-08-07T18:52:37.962Z,11.9
2022-08-07T18:53:50.619Z,10.1
2022-08-07T18:55:55.406Z,10
2022-08-07T18:57:59.433Z,11.6
2022-08-07T18:59:47.276Z,12.2
2022-08-07T19:02:33.111Z,15
2022-08-07T19:03:42.020Z,12.3
2022-08-07T19:06:03.907Z,12.2
2022-08-07T19:07:38.005Z,12.5
2022-08-07T19:09:57.609Z,9.9
2022-08-07T19:12:04.209Z,9.7
2022-08-07T19:13:46.253Z,8.8
2022-08-07T19:16:04.956Z,10
2022-08-07T19:18:03.884Z,10.1
2022-08-07T19:19:41.376Z,11.1
2022-08-07T19:21:51.501Z,10.5
2022-08-07T19:23:58.611Z,12.4
2022-08-07T19:26:23.632Z,12.7
2022-08-07T19:28:57.775Z,9.4
2022-08-07T19:31:03.179Z,12.3
2022-08-07T19:32:07.954Z,9.2
2022-08-07T19:33:39.737Z,9.7
2022-08-07T19:35:39.082Z,9.3
2022-08-07T19:37:57.210Z,10.8
2022-08-07T19:39:56.635Z,9.9
2022-08-07T19:42:05.543Z,7.8
2022-08-07T19:43:49.135Z,10.5
2022-08-07T19:46:06.037Z,11.4
2022-08-07T19:47:42.162Z,10.6
2022-08-07T19:49:57.823Z,10.2
2022-08-07T19:51:52.229Z,9.1
2022-08-07T19:54:33.334Z,10.6
2022-08-07T19:55:56.281Z,9.5
2022-08-07T19:58:00.427Z,9.7
2022-08-07T19:59:45.121Z,12.1
2022-08-07T20:01:55.878Z,10.8
2022-08-07T20:03:42.593Z,10.1
2022-08-07T20:06:00.865Z,10.9
2022-08-07T20:07:47.637Z,7.5
2022-08-07T20:10:35.141Z,7.5
2022-08-07T20:12:22.347Z,7.4
2022-08-07T20:13:47.881Z,6.1
2022-08-07T20:15:47.050Z,6.9
2022-08-07T20:17:45.936Z,6.2
2022-08-07T20:19:58.315Z,8.3
2022-08-07T20:21:48.561Z,6.8
2022-08-07T20:23:53.842Z,6.9
2022-08-07T20:25:50.986Z,9
2022-08-07T20:27:57.869Z,8.2
2022-08-07T20:29:56.800Z,8.6
2022-08-07T20:31:48.958Z,6.2
2022-08-07T20:33:52.036Z,8
2022-08-07T20:35:54.298Z,8.1
2022-08-07T20:37:59.195Z,8.4
2022-08-07T20:40:03.264Z,9.4
2022-08-07T20:41:51.467Z,7.3
2022-08-07T20:43:51.634Z,8.5
2022-08-07T20:46:26.922Z,7.3
2022-08-07T20:47:56.140Z,6.2
2022-08-07T20:50:00.309Z,8.2
2022-08-07T20:51:52.630Z,10
2022-08-07T20:54:03.370Z,8.1
2022-08-07T20:55:56.988Z,7
2022-08-07T20:58:02.621Z,7.5
2022-08-07T21:00:08.219Z,8.9
2022-08-07T21:01:58.378Z,8
2022-08-07T21:04:19.463Z,7.4
2022-08-07T21:05:58.479Z,7.7
2022-08-07T21:07:59.312Z,9.1
2022-08-07T21:10:00.547Z,7.2
2022-08-07T21:12:01.537Z,7.6
2022-08-07T21:14:32.749Z,8.6
2022-08-07T21:16:01.104Z,9.1
2022-08-07T21:18:09.121Z,8.8
2022-08-07T21:20:04.496Z,8
2022-08-07T21:22:03.220Z,10.1
2022-08-07T21:24:06.304Z,8.3
2022-08-07T21:26:06.408Z,9.4
2022-08-07T21:28:09.479Z,8.9
2022-08-07T21:30:03.490Z,9.2
2022-08-07T21:32:47.612Z,8.4
2022-08-07T21:34:11.768Z,9.2
2022-08-07T21:36:12.242Z,10.5
2022-08-07T21:38:08.055Z,8.8
2022-08-07T21:40:08.022Z,9.8
2022-08-07T21:42:37.467Z,9
2022-08-07T21:44:14.672Z,13.2
2022-08-07T21:46:24.809Z,9
2022-08-07T21:48:28.861Z,10.2
2022-08-07T21:50:14.641Z,8.5
2022-08-07T21:52:11.754Z,8.2
2022-08-07T21:54:16.458Z,12.1
2022-08-07T21:56:35.708Z,9.3
2022-08-07T21:58:12.076Z,13.6
2022-08-07T22:00:21.947Z,12.3
2022-08-07T22:02:13.933Z,11.1
2022-08-07T22:04:11.944Z,16.7
2022-08-07T22:06:31.005Z,14.9
2022-08-07T22:08:10.536Z,12.9
2022-08-07T22:10:12.078Z,13.1
2022-08-07T22:12:13.537Z,14.5
2022-08-07T22:14:15.388Z,12.9
2022-08-07T22:16:42.548Z,14.7
2022-08-07T22:18:19.801Z,11.7
2022-08-07T22:20:22.707Z,11.4
2022-08-07T22:22:21.295Z,12.1
2022-08-07T22:24:16.731Z,11.3
2022-08-07T22:26:18.778Z,10.8
2022-08-07T22:28:30.862Z,11
2022-08-07T22:30:16.435Z,11.1
2022-08-07T22:32:33.359Z,13.3
2022-08-07T22:34:18.633Z,11.7
2022-08-07T22:36:21.961Z,11.2
2022-08-07T22:38:25.806Z,13.9
2022-08-07T22:40:22.146Z,14.5
2022-08-07T22:42:19.493Z,15.3
2022-08-07T22:44:20.528Z,17.4
2022-08-07T22:47:03.650Z,15.3
2022-08-07T22:48:54.947Z,16
2022-08-07T22:50:33.581Z,17.6
2022-08-07T22:52:37.476Z,17.1
2022-08-07T22:54:36.256Z,16.8
2022-08-07T22:56:28.860Z,17.8
2022-08-07T22:58:37.751Z,22.8
2022-08-07T23:00:21.469Z,20.5
2022-08-07T23:02:33.893Z,15.3
2022-08-07T23:04:44.173Z,17.5
2022-08-07T23:06:36.635Z,16.6
2022-08-07T23:08:46.239Z,18.8
2022-08-07T23:10:37.870Z,16.5
2022-08-07T23:12:34.259Z,19.2
2022-08-07T23:14:32.254Z,15.6
2022-08-07T23:16:46.667Z,18.5
2022-08-07T23:18:35.049Z,17.1
2022-08-07T23:20:40.521Z,15.7
2022-08-07T23:22:37.340Z,15.7
2022-08-07T23:24:32.582Z,14.5
2022-08-07T23:26:25.397Z,14.2
2022-08-07T23:28:53.336Z,18.8
2022-08-07T23:30:42.637Z,16
2022-08-07T23:34:19.472Z,15.7
2022-08-07T23:34:47.059Z,12.2
2022-08-07T23:36:43.167Z,11.3
2022-08-07T23:38:42.733Z,10.2
2022-08-07T23:40:32.432Z,10.7
2022-08-07T23:42:42.497Z,12.4
2022-08-07T23:44:57.056Z,14
2022-08-07T23:46:45.363Z,16.4
2022-08-07T23:48:39.392Z,15.6
2022-08-07T23:50:34.404Z,22
2022-08-07T23:53:01.917Z,24.2
2022-08-07T23:54:44.596Z,26.6
2022-08-07T23:56:37.804Z,29
2022-08-07T23:58:37.359Z,34
